createdAt,value
2022-12-15T00:01:49.588Z,100153.69
2022-12-15T00:04:34.585Z,100149.56
2022-12-15T00:07:19.806Z,100152.97
2022-12-15T00:10:04.690Z,100160.47
2022-12-15T00:12:50.104Z,100168.91
2022-12-15T00:15:35.489Z,100173.16
2022-12-15T00:18:24.939Z,100172.38
2022-12-15T00:21:10.304Z,100164.06
2022-12-15T00:23:55.009Z,100185.22
2022-12-15T00:26:39.849Z,100168.50
2022-12-15T00:29:25.347Z,100165.19
2022-12-15T00:32:10.155Z,100154.31
2022-12-15T00:34:55.049Z,100171.97
2022-12-15T00:37:39.886Z,100165.19
2022-12-15T00:40:06.968Z,100182.09
2022-12-15T00:42:33.495Z,100178.78
2022-12-15T00:44:59.952Z,100175.44
2022-12-15T00:47:26.499Z,100193.94
2022-12-15T00:50:11.294Z,100183.00
2022-12-15T00:52:56.712Z,100201.66
2022-12-15T00:55:41.581Z,100203.41
2022-12-15T00:58:26.576Z,100200.00
2022-12-15T01:01:11.463Z,100188.31
2022-12-15T01:03:56.552Z,100201.81
2022-12-15T01:06:42.200Z,100199.44
2022-12-15T01:09:29.169Z,100207.03
2022-12-15T01:12:14.119Z,100200.31
2022-12-15T01:14:59.424Z,100203.72
2022-12-15T01:17:44.930Z,100195.34
2022-12-15T01:20:32.752Z,100204.59
2022-12-15T01:22:59.527Z,100215.63
2022-12-15T01:25:27.537Z,100219.84
2022-12-15T01:27:54.282Z,100218.91
2022-12-15T01:30:24.402Z,100206.41
2022-12-15T01:32:51.972Z,100226.59
2022-12-15T01:35:19.055Z,100226.63
2022-12-15T01:37:46.255Z,100229.97
2022-12-15T01:40:45.708Z,100230.81
2022-12-15T01:43:27.538Z,100229.13
2022-12-15T01:45:56.531Z,100233.34
2022-12-15T01:48:28.246Z,100241.06
2022-12-15T01:51:01.406Z,100249.56
2022-12-15T01:53:30.641Z,100233.53
2022-12-15T01:55:57.647Z,100219.34
2022-12-15T01:58:24.170Z,100246.97
2022-12-15T02:00:50.643Z,100256.25
2022-12-15T02:03:18.659Z,100247.81
2022-12-15T02:05:46.964Z,100244.41
2022-12-15T02:08:13.770Z,100256.31
2022-12-15T02:11:15.330Z,100254.63
2022-12-15T02:13:57.126Z,100248.69
2022-12-15T02:16:36.343Z,100252.94
2022-12-15T02:19:05.597Z,100256.28
2022-12-15T02:22:02.570Z,100249.47
2022-12-15T02:25:10.358Z,100246.06
2022-12-15T02:27:59.210Z,100250.34
2022-12-15T02:30:35.422Z,100254.59
2022-12-15T02:33:23.966Z,100240.25
2022-12-15T02:36:01.827Z,100246.97
2022-12-15T02:38:37.659Z,100237.66
2022-12-15T02:41:06.326Z,100258.84
2022-12-15T02:43:37.029Z,100255.44
2022-12-15T02:46:14.630Z,100265.59
2022-12-15T02:49:28.164Z,100271.53
2022-12-15T02:52:32.231Z,100265.53
2022-12-15T02:55:13.328Z,100266.47
2022-12-15T02:57:59.427Z,100262.22
2022-12-15T03:00:28.270Z,100260.50
2022-12-15T03:02:55.895Z,100277.44
2022-12-15T03:05:24.887Z,100280.81
2022-12-15T03:07:54.159Z,100266.53
2022-12-15T03:10:23.568Z,100279.91
2022-12-15T03:12:52.804Z,100272.38
2022-12-15T03:15:19.421Z,100268.09
2022-12-15T03:17:46.071Z,100276.50
2022-12-15T03:20:12.652Z,100285.00
2022-12-15T03:22:39.457Z,100298.44
2022-12-15T03:25:06.177Z,100301.06
2022-12-15T03:27:32.708Z,100309.47
2022-12-15T03:29:59.125Z,100314.59
2022-12-15T03:32:25.627Z,100307.03
2022-12-15T03:34:52.074Z,100303.72
2022-12-15T03:37:18.506Z,100286.91
2022-12-15T03:39:44.949Z,100302.06
2022-12-15T03:42:11.387Z,100297.91
2022-12-15T03:44:37.890Z,100307.28
2022-12-15T03:47:04.436Z,100303.97
2022-12-15T03:49:30.843Z,100299.84
2022-12-15T03:51:57.340Z,100310.75
2022-12-15T03:54:23.776Z,100319.19
2022-12-15T03:56:50.270Z,100313.28
2022-12-15T03:59:16.799Z,100302.38
2022-12-15T04:01:49.203Z,100310.03
2022-12-15T04:04:15.973Z,100312.63
2022-12-15T04:06:42.411Z,100317.88
2022-12-15T04:09:09.009Z,100322.97
2022-12-15T04:11:35.819Z,100327.28
2022-12-15T04:14:02.326Z,100323.94
2022-12-15T04:16:29.537Z,100313.88
2022-12-15T04:19:14.708Z,100331.66
2022-12-15T04:21:41.163Z,100322.38
2022-12-15T04:24:26.339Z,100325.72
2022-12-15T04:27:11.355Z,100318.97
2022-12-15T04:29:56.215Z,100322.38
2022-12-15T04:32:42.233Z,100332.53
2022-12-15T04:35:28.056Z,100323.22
2022-12-15T04:38:13.792Z,100318.16
2022-12-15T04:40:59.258Z,100303.88
2022-12-15T04:43:44.577Z,100304.75
2022-12-15T04:46:29.689Z,100303.13
2022-12-15T04:49:14.934Z,100320.84
2022-12-15T04:52:00.091Z,100316.66
2022-12-15T04:54:45.049Z,100315.06
2022-12-15T04:57:29.838Z,100279.81
2022-12-15T05:00:14.732Z,100321.13
2022-12-15T05:02:59.494Z,100339.66
2022-12-15T05:05:44.377Z,100332.91
2022-12-15T05:08:29.237Z,100333.78
2022-12-15T05:11:14.112Z,100343.91
2022-12-15T05:13:58.938Z,100346.47
2022-12-15T05:16:43.809Z,100348.09
2022-12-15T05:19:28.973Z,100343.91
2022-12-15T05:22:14.379Z,100358.25
2022-12-15T05:24:59.207Z,100351.44
2022-12-15T05:27:44.077Z,100316.19
2022-12-15T05:30:29.363Z,100351.53
2022-12-15T05:32:55.831Z,100339.66
2022-12-15T05:35:22.278Z,100350.69
2022-12-15T05:37:48.777Z,100338.94
2022-12-15T05:40:15.323Z,100359.19
2022-12-15T05:42:41.740Z,100360.06
2022-12-15T05:45:10.098Z,100359.22
2022-12-15T05:47:36.606Z,100366.91
2022-12-15T05:50:03.786Z,100367.75
2022-12-15T05:52:30.338Z,100350.06
2022-12-15T05:54:56.781Z,100355.16
2022-12-15T05:57:23.269Z,100356.03
2022-12-15T05:59:49.714Z,100367.84
2022-12-15T06:02:16.224Z,100383.88
2022-12-15T06:04:42.811Z,100381.38
2022-12-15T06:07:09.325Z,100383.06
2022-12-15T06:09:35.761Z,100385.66
2022-12-15T06:12:02.250Z,100387.31
2022-12-15T06:14:28.707Z,100367.09
2022-12-15T06:16:55.868Z,100383.19
2022-12-15T06:19:22.508Z,100374.75
2022-12-15T06:21:49.042Z,100385.75
2022-12-15T06:24:15.600Z,100399.25
2022-12-15T06:26:42.118Z,100385.75
2022-12-15T06:29:11.306Z,100401.78
2022-12-15T06:31:39.019Z,100389.97
2022-12-15T06:34:08.295Z,100397.56
2022-12-15T06:36:35.262Z,100386.56
2022-12-15T06:39:04.273Z,100389.06
2022-12-15T06:41:31.444Z,100384.84
2022-12-15T06:43:58.947Z,100381.50
2022-12-15T06:46:27.963Z,100382.31
2022-12-15T06:48:54.573Z,100385.72
2022-12-15T06:51:22.312Z,100370.56
2022-12-15T06:53:49.178Z,100378.19
2022-12-15T06:56:33.073Z,100387.47
2022-12-15T06:59:01.784Z,100384.91
2022-12-15T07:01:28.927Z,100399.25
2022-12-15T07:03:55.812Z,100398.41
2022-12-15T07:06:23.070Z,100390.75
2022-12-15T07:08:52.481Z,100405.09
2022-12-15T07:11:21.049Z,100404.22
2022-12-15T07:13:53.048Z,100407.59
2022-12-15T07:16:21.467Z,100399.16
2022-12-15T07:18:48.354Z,100411.00
2022-12-15T07:21:15.068Z,100384.91
2022-12-15T07:23:57.828Z,100417.78
2022-12-15T07:26:25.125Z,100406.88
2022-12-15T07:28:53.401Z,100422.06
2022-12-15T07:31:20.695Z,100420.44
2022-12-15T07:33:48.337Z,100432.22
2022-12-15T07:36:15.423Z,100433.03
2022-12-15T07:38:41.914Z,100433.03
2022-12-15T07:41:09.860Z,100431.34
2022-12-15T07:43:37.455Z,100433.03
2022-12-15T07:46:05.216Z,100433.94
2022-12-15T07:48:32.898Z,100439.81
2022-12-15T07:51:08.424Z,100429.72
2022-12-15T07:53:37.829Z,100410.31
2022-12-15T07:56:08.462Z,100427.13
2022-12-15T07:58:36.285Z,100428.78
2022-12-15T08:01:05.288Z,100440.59
2022-12-15T08:03:32.576Z,100443.13
2022-12-15T08:06:04.421Z,100441.41
2022-12-15T08:08:32.212Z,100434.66
2022-12-15T08:10:58.924Z,100438.88
2022-12-15T08:14:00.888Z,100431.25
2022-12-15T08:16:12.782Z,100432.91
2022-12-15T08:18:39.664Z,100442.19
2022-12-15T08:21:08.330Z,100448.06
2022-12-15T08:23:35.972Z,100459.91
2022-12-15T08:26:07.968Z,100462.41
2022-12-15T08:28:35.559Z,100459.88
2022-12-15T08:31:07.731Z,100467.41
2022-12-15T08:33:34.828Z,100468.25
2022-12-15T08:36:03.956Z,100463.06
2022-12-15T08:38:31.677Z,100462.13
2022-12-15T08:40:58.774Z,100453.56
2022-12-15T08:43:25.222Z,100474.50
2022-12-15T08:45:51.824Z,100472.75
2022-12-15T08:48:18.540Z,100481.03
2022-12-15T08:50:45.774Z,100474.22
2022-12-15T08:56:06.913Z,100446.22
2022-12-15T08:58:34.192Z,100487.38
2022-12-15T09:01:17.460Z,100494.06
2022-12-15T09:03:50.338Z,100489.72
2022-12-15T09:06:20.764Z,100487.94
2022-12-15T09:08:50.134Z,100467.59
2022-12-15T09:11:17.754Z,100490.25
2022-12-15T09:13:44.501Z,100493.53
2022-12-15T09:16:14.769Z,100491.84
2022-12-15T09:18:46.648Z,100509.50
2022-12-15T09:21:15.365Z,100516.25
2022-12-15T09:23:42.563Z,100517.03
2022-12-15T09:26:14.354Z,100516.84
2022-12-15T09:28:42.818Z,100515.91
2022-12-15T09:31:21.922Z,100507.34
2022-12-15T09:33:51.082Z,100511.63
2022-12-15T09:36:17.551Z,100509.00
2022-12-15T09:38:44.776Z,100515.66
2022-12-15T09:41:14.959Z,100527.44
2022-12-15T09:43:58.563Z,100535.25
2022-12-15T09:46:37.474Z,100537.69
2022-12-15T09:49:29.189Z,100536.13
2022-12-15T09:52:17.963Z,100525.16
2022-12-15T09:54:46.175Z,100539.56
2022-12-15T09:57:35.665Z,100549.75
2022-12-15T10:00:14.500Z,100529.44
2022-12-15T10:03:08.423Z,100542.03
2022-12-15T10:06:18.102Z,100543.56
2022-12-15T10:08:55.926Z,100537.59
2022-12-15T10:11:43.864Z,100533.44
2022-12-15T10:14:35.162Z,100534.31
2022-12-15T10:17:13.960Z,100535.94
2022-12-15T10:19:49.976Z,100547.69
2022-12-15T10:22:23.811Z,100540.84
2022-12-15T10:28:18.311Z,100537.25
2022-12-15T10:31:07.983Z,100549.00
2022-12-15T10:36:32.079Z,100565.00
2022-12-15T10:38:58.584Z,100554.88
2022-12-15T10:41:28.408Z,100562.31
2022-12-15T10:43:55.034Z,100552.88
2022-12-15T10:46:27.079Z,100550.41
2022-12-15T10:48:59.923Z,100545.25
2022-12-15T10:51:51.027Z,100536.88
2022-12-15T10:54:18.822Z,100548.44
2022-12-15T10:57:16.663Z,100549.19
2022-12-15T10:59:43.442Z,100533.03
2022-12-15T11:02:37.066Z,100532.16
2022-12-15T11:05:15.609Z,100528.00
2022-12-15T11:07:44.240Z,100533.97
2022-12-15T11:10:20.004Z,100525.56
2022-12-15T11:13:16.123Z,100528.72
2022-12-15T11:18:53.431Z,100523.69
2022-12-15T11:21:26.482Z,100524.41
2022-12-15T11:24:01.705Z,100514.97
2022-12-15T11:26:50.121Z,100522.38
2022-12-15T11:29:23.339Z,100514.75
2022-12-15T11:31:51.716Z,100517.88
2022-12-15T11:34:21.587Z,100510.91
2022-12-15T11:37:00.054Z,100522.75
2022-12-15T11:39:56.873Z,100522.75
2022-12-15T11:42:42.286Z,100519.50
2022-12-15T11:45:23.726Z,100515.72
2022-12-15T11:47:58.535Z,100533.63
2022-12-15T11:50:42.650Z,100528.75
2022-12-15T11:53:30.893Z,100517.47
2022-12-15T11:56:09.955Z,100510.53
2022-12-15T11:59:04.790Z,100503.19
2022-12-15T12:02:03.192Z,100508.19
2022-12-15T12:04:52.056Z,100518.75
2022-12-15T12:07:41.688Z,100518.50
2022-12-15T12:11:03.075Z,100511.47
2022-12-15T12:13:42.444Z,100503.84
2022-12-15T12:16:31.986Z,100512.28
2022-12-15T12:19:10.183Z,100522.97
2022-12-15T12:21:51.124Z,100521.28
2022-12-15T12:24:29.968Z,100516.22
2022-12-15T12:26:59.087Z,100517.53
2022-12-15T12:29:37.943Z,100507.38
2022-12-15T12:32:17.045Z,100495.84
2022-12-15T12:35:32.363Z,100480.88
2022-12-15T12:37:56.873Z,100469.63
2022-12-15T12:40:47.819Z,100471.78
2022-12-15T12:43:41.389Z,100458.16
2022-12-15T12:46:22.691Z,100483.59
2022-12-15T12:48:56.200Z,100474.16
2022-12-15T12:51:37.883Z,100455.09
2022-12-15T12:54:36.626Z,100460.75
2022-12-15T12:57:12.313Z,100464.50
2022-12-15T13:00:14.286Z,100460.03
2022-12-15T13:02:47.757Z,100450.75
2022-12-15T13:05:28.494Z,100445.22
2022-12-15T13:07:56.938Z,100433.22
2022-12-15T13:10:25.227Z,100429.50
2022-12-15T13:12:59.707Z,100429.59
2022-12-15T13:15:39.618Z,100431.97
2022-12-15T13:18:16.775Z,100431.41
2022-12-15T13:20:45.158Z,100416.22
2022-12-15T13:23:21.753Z,100422.59
2022-12-15T13:25:56.964Z,100416.56
2022-12-15T13:28:40.510Z,100405.44
2022-12-15T13:31:16.559Z,100402.94
2022-12-15T13:34:12.340Z,100394.41
2022-12-15T13:36:41.779Z,100396.94
2022-12-15T13:39:11.393Z,100396.97
2022-12-15T13:42:15.327Z,100375.91
2022-12-15T13:44:41.281Z,100367.63
2022-12-15T13:47:12.461Z,100381.81
2022-12-15T13:49:49.413Z,100368.06
2022-12-15T13:53:08.727Z,100375.94
2022-12-15T13:55:28.289Z,100378.34
2022-12-15T13:58:00.294Z,100371.63
2022-12-15T14:00:26.822Z,100356.34
2022-12-15T14:03:07.562Z,100383.34
2022-12-15T14:05:34.393Z,100384.06
2022-12-15T14:08:03.447Z,100377.09
2022-12-15T14:10:41.774Z,100374.94
2022-12-15T14:13:20.319Z,100372.16
2022-12-15T14:15:55.864Z,100348.50
2022-12-15T14:21:20.128Z,100354.69
2022-12-15T14:24:11.476Z,100347.66
2022-12-15T14:26:33.316Z,100322.44
2022-12-15T14:29:03.337Z,100345.53
2022-12-15T14:31:30.903Z,100339.97
2022-12-15T14:34:06.288Z,100331.09
2022-12-15T14:36:33.192Z,100335.69
2022-12-15T14:39:01.441Z,100333.25
2022-12-15T14:41:31.736Z,100328.25
2022-12-15T14:44:31.797Z,100293.44
2022-12-15T14:47:05.825Z,100326.97
2022-12-15T14:49:43.565Z,100336.25
2022-12-15T14:52:23.191Z,100279.72
2022-12-15T14:54:53.311Z,100322.53
2022-12-15T14:57:37.987Z,100331.19
2022-12-15T15:00:26.116Z,100335.81
2022-12-15T15:03:04.701Z,100526.97
2022-12-15T15:03:12.192Z,100546.44
2022-12-15T15:03:17.231Z,100339.91
2022-12-15T15:05:47.522Z,100344.97
2022-12-15T15:08:19.317Z,100351.69
2022-12-15T15:10:45.926Z,100272.06
2022-12-15T15:13:19.119Z,100344.91
2022-12-15T15:15:53.362Z,100345.09
2022-12-15T15:18:26.363Z,100349.38
2022-12-15T15:21:00.302Z,100344.38
2022-12-15T15:23:26.811Z,100345.34
2022-12-15T15:26:05.847Z,100345.53
2022-12-15T15:28:41.309Z,100350.72
2022-12-15T15:31:40.814Z,100361.84
2022-12-15T15:34:08.542Z,100368.66
2022-12-15T15:36:37.856Z,100357.69
2022-12-15T15:39:12.070Z,100368.84
2022-12-15T15:41:38.642Z,100294.28
2022-12-15T15:44:12.666Z,100391.72
2022-12-15T15:46:52.435Z,100386.72
2022-12-15T15:49:21.677Z,100393.47
2022-12-15T15:51:48.989Z,100390.94
2022-12-15T15:54:19.078Z,100407.19
2022-12-15T15:56:45.576Z,100406.50
2022-12-15T15:59:16.812Z,100412.63
2022-12-15T16:01:44.090Z,100414.50
2022-12-15T16:04:10.766Z,100391.16
2022-12-15T16:06:40.836Z,100402.84
2022-12-15T16:09:14.709Z,100408.81
2022-12-15T16:11:41.206Z,100416.50
2022-12-15T16:14:15.418Z,100362.66
2022-12-15T16:16:42.052Z,100416.44
2022-12-15T16:19:09.161Z,100412.22
2022-12-15T16:21:36.172Z,100386.22
2022-12-15T16:24:09.983Z,100419.91
2022-12-15T16:26:38.886Z,100424.31
2022-12-15T16:29:15.326Z,100426.97
2022-12-15T16:31:45.431Z,100435.59
2022-12-15T16:34:19.421Z,100423.78
2022-12-15T16:36:46.184Z,100425.63
2022-12-15T16:39:20.732Z,100430.94
2022-12-15T16:41:47.173Z,100434.41
2022-12-15T16:44:14.215Z,100413.38
2022-12-15T16:46:40.766Z,100431.97
2022-12-15T16:49:07.280Z,100394.28
2022-12-15T16:51:38.832Z,100443.16
2022-12-15T16:54:06.023Z,100435.63
2022-12-15T16:56:33.033Z,100442.53
2022-12-15T16:59:30.851Z,100436.78
2022-12-15T17:01:46.130Z,100448.72
2022-12-15T17:04:12.761Z,100443.75
2022-12-15T17:06:39.426Z,100441.34
2022-12-15T17:09:08.836Z,100450.75
2022-12-15T17:11:35.567Z,100441.59
2022-12-15T17:14:02.046Z,100449.28
2022-12-15T17:16:29.675Z,100436.81
2022-12-15T17:18:56.244Z,100453.66
2022-12-15T17:21:29.706Z,100463.78
2022-12-15T17:23:59.714Z,100471.34
2022-12-15T17:26:32.045Z,100479.00
2022-12-15T17:29:01.563Z,100471.41
2022-12-15T17:31:34.776Z,100464.66
2022-12-15T17:34:22.291Z,100469.75
2022-12-15T17:36:49.136Z,100474.84
2022-12-15T17:39:19.191Z,100471.50
2022-12-15T17:42:02.317Z,100465.66
2022-12-15T17:44:34.376Z,100432.97
2022-12-15T17:47:03.852Z,100469.97
2022-12-15T17:49:35.628Z,100470.84
2022-12-15T17:52:07.352Z,100476.84
2022-12-15T17:54:34.043Z,100482.00
2022-12-15T17:57:00.497Z,100445.03
2022-12-15T17:59:27.142Z,100478.72
2022-12-15T18:01:57.080Z,100475.34
2022-12-15T18:04:23.950Z,100471.16
2022-12-15T18:06:52.009Z,100473.78
2022-12-15T18:09:22.345Z,100466.22
2022-12-15T18:11:49.616Z,100459.50
2022-12-15T18:14:18.466Z,100455.28
2022-12-15T18:16:46.180Z,100404.03
2022-12-15T18:19:13.314Z,100441.84
2022-12-15T18:21:45.713Z,100449.53
2022-12-15T18:24:13.784Z,100457.28
2022-12-15T18:26:40.443Z,100440.34
2022-12-15T18:29:13.220Z,100446.22
2022-12-15T18:31:40.816Z,100454.63
2022-12-15T18:34:12.821Z,100459.72
2022-12-15T18:36:40.016Z,100454.66
2022-12-15T18:39:18.640Z,100463.25
2022-12-15T18:41:45.658Z,100455.66
2022-12-15T18:44:23.491Z,100459.94
2022-12-15T18:46:50.080Z,100453.31
2022-12-15T18:49:17.836Z,100449.22
2022-12-15T18:51:45.411Z,100451.75
2022-12-15T18:54:18.118Z,100453.50
2022-12-15T18:56:44.988Z,100461.19
2022-12-15T18:59:16.695Z,100462.84
2022-12-15T19:01:45.922Z,100456.03
2022-12-15T19:04:13.453Z,100454.47
2022-12-15T19:06:40.885Z,100453.66
2022-12-15T19:09:27.699Z,100455.34
2022-12-15T19:12:17.100Z,100456.22
2022-12-15T19:14:45.364Z,100451.16
2022-12-15T19:17:33.764Z,100458.75
2022-12-15T19:20:20.218Z,100453.72
2022-12-15T19:22:48.495Z,100459.78
2022-12-15T19:25:26.098Z,100460.66
2022-12-15T19:27:58.572Z,100452.22
2022-12-15T19:30:27.693Z,100456.44
2022-12-15T19:32:54.293Z,100447.09
2022-12-15T19:35:21.485Z,100453.03
2022-12-15T19:37:49.893Z,100463.25
2022-12-15T19:40:22.792Z,100459.88
2022-12-15T19:42:50.231Z,100454.78
2022-12-15T19:45:19.210Z,100459.88
2022-12-15T19:47:45.688Z,100453.09
2022-12-15T19:50:21.011Z,100460.75
2022-12-15T19:52:50.839Z,100459.84
2022-12-15T19:55:20.827Z,100454.81
2022-12-15T19:57:47.276Z,100462.38
2022-12-15T20:00:15.599Z,100459.88
2022-12-15T20:02:42.411Z,100464.97
2022-12-15T20:05:09.078Z,100465.88
2022-12-15T20:07:35.668Z,100452.47
2022-12-15T20:10:05.287Z,100461.75
2022-12-15T20:12:31.806Z,100452.41
2022-12-15T20:14:58.249Z,100457.50
2022-12-15T20:17:24.825Z,100456.69
2022-12-15T20:19:51.286Z,100456.69
2022-12-15T20:22:19.395Z,100463.50
2022-12-15T20:24:46.976Z,100469.47
2022-12-15T20:27:15.677Z,100459.34
2022-12-15T20:29:42.689Z,100456.00
2022-12-15T20:32:18.548Z,100456.91
2022-12-15T20:34:45.542Z,100448.47
2022-12-15T20:37:25.548Z,100451.00
2022-12-15T20:39:57.131Z,100444.25
2022-12-15T20:42:24.663Z,100442.56
2022-12-15T20:44:51.513Z,100446.84
2022-12-15T20:47:26.050Z,100442.59
2022-12-15T20:49:54.283Z,100445.13
2022-12-15T20:52:23.717Z,100440.06
2022-12-15T20:54:51.076Z,100446.00
2022-12-15T20:57:17.805Z,100442.66
2022-12-15T20:59:44.758Z,100446.06
2022-12-15T21:02:19.424Z,100447.78
2022-12-15T21:04:46.461Z,100430.09
2022-12-15T21:07:13.282Z,100452.06
2022-12-15T21:09:40.050Z,100450.41
2022-12-15T21:12:27.530Z,100447.91
2022-12-15T21:14:54.852Z,100458.91
2022-12-15T21:17:25.731Z,100454.66
2022-12-15T21:19:52.837Z,100452.16
2022-12-15T21:22:26.436Z,100452.97
2022-12-15T21:24:56.804Z,100443.69
2022-12-15T21:27:23.179Z,100457.22
2022-12-15T21:29:52.620Z,100454.72
2022-12-15T21:32:20.107Z,100446.25
2022-12-15T21:34:46.726Z,100444.53
2022-12-15T21:37:19.124Z,100441.09
2022-12-15T21:39:45.639Z,100440.19
2022-12-15T21:42:15.970Z,100441.06
2022-12-15T21:44:42.867Z,100443.56
2022-12-15T21:47:51.876Z,100449.47
2022-12-15T21:50:19.281Z,100450.34
2022-12-15T21:52:47.428Z,100453.75
2022-12-15T21:55:14.689Z,100463.94
2022-12-15T21:57:41.197Z,100458.88
2022-12-15T22:00:13.458Z,100466.53
2022-12-15T22:02:40.650Z,100461.44
2022-12-15T22:05:24.663Z,100458.09
2022-12-15T22:07:51.579Z,100460.66
2022-12-15T22:10:18.480Z,100464.09
2022-12-15T22:12:55.898Z,100473.41
2022-12-15T22:15:26.170Z,100472.63
2022-12-15T22:17:52.729Z,100459.13
2022-12-15T22:20:23.153Z,100479.41
2022-12-15T22:22:50.677Z,100468.41
2022-12-15T22:25:20.465Z,100461.69
2022-12-15T22:27:47.332Z,100471.78
2022-12-15T22:30:16.318Z,100465.91
2022-12-15T22:32:42.820Z,100471.81
2022-12-15T22:35:27.438Z,100466.81
2022-12-15T22:37:54.055Z,100478.63
2022-12-15T22:40:23.300Z,100475.28
2022-12-15T22:42:55.118Z,100482.03
2022-12-15T22:45:23.942Z,100467.63
2022-12-15T22:47:52.359Z,100488.78
2022-12-15T22:50:23.400Z,100485.38
2022-12-15T22:52:50.305Z,100482.84
2022-12-15T22:55:20.385Z,100493.00
2022-12-15T22:57:53.207Z,100492.19
2022-12-15T23:00:19.645Z,100487.94
2022-12-15T23:02:47.233Z,100490.50
2022-12-15T23:05:15.955Z,100491.34
2022-12-15T23:07:43.812Z,100489.66
2022-12-15T23:10:34.681Z,100496.47
2022-12-15T23:13:01.114Z,100489.72
2022-12-15T23:15:47.259Z,100492.22
2022-12-15T23:18:14.172Z,100496.47
2022-12-15T23:20:40.742Z,100492.25
2022-12-15T23:23:08.677Z,100488.03
2022-12-15T23:25:35.275Z,100499.03
2022-12-15T23:28:01.753Z,100508.34
2022-12-15T23:30:28.168Z,100513.41
2022-12-15T23:32:55.226Z,100510.03
2022-12-15T23:35:22.088Z,100504.13
2022-12-15T23:37:48.534Z,100499.88
2022-12-15T23:40:21.144Z,100506.69
2022-12-15T23:42:51.593Z,100503.28
2022-12-15T23:45:18.830Z,100504.97
2022-12-15T23:47:45.411Z,100507.50
2022-12-15T23:50:11.918Z,100508.34
2022-12-15T23:52:38.754Z,100513.44
2022-12-15T23:55:07.948Z,100505.81
2022-12-15T23:57:34.871Z,100504.13
